Time;durP1;ratioP1;P1;durP2;ratioP2;P2;SDS_P1;SDS_P2;PMS_P1;PMS_P2;Temp;Humidity;BMP_temperature;BMP_pressure;BME280_temperature;BME280_humidity;BME280_pressure;Samples;Min_cycle;Max_cycle;Signal;HPM_P1;HPM_P2
2021/03/24 00:01:39;;;;;;;36.60;18.37;;;5.10;99.90;;;;;;5027634;28;20486;-73
2021/03/24 00:04:07;;;;;;;33.87;19.10;;;5.10;99.90;;;;;;5039147;28;20850;-76
2021/03/24 00:06:35;;;;;;;32.70;17.33;;;5.00;99.90;;;;;;5039383;28;20496;-72
2021/03/24 00:09:08;;;;;;;33.50;19.60;;;5.10;99.90;;;;;;5020985;28;20435;-73
2021/03/24 00:11:36;;;;;;;40.33;19.57;;;5.10;99.90;;;;;;5021335;28;20430;-75
2021/03/24 00:14:09;;;;;;;39.30;19.77;;;5.00;99.90;;;;;;5021804;28;20955;-73
2021/03/24 00:16:37;;;;;;;34.70;17.67;;;5.00;99.90;;;;;;5033803;28;20486;-73
2021/03/24 00:19:05;;;;;;;36.50;18.37;;;5.00;99.90;;;;;;5039516;28;20522;-72
2021/03/24 00:21:32;;;;;;;35.83;20.03;;;4.90;99.90;;;;;;5057289;28;20991;-73
2021/03/24 00:24:00;;;;;;;31.73;19.40;;;4.90;99.90;;;;;;5044888;28;20502;-73
2021/03/24 00:26:28;;;;;;;31.93;17.87;;;4.90;99.90;;;;;;5064091;28;20963;-73
2021/03/24 00:28:55;;;;;;;27.40;15.20;;;4.90;99.90;;;;;;5058627;28;20438;-73
2021/03/24 00:31:24;;;;;;;29.80;18.73;;;4.90;99.90;;;;;;5056075;28;20470;-73
2021/03/24 00:33:53;;;;;;;27.03;15.73;;;4.90;99.90;;;;;;5057678;28;20435;-73
2021/03/24 00:36:21;;;;;;;31.93;18.50;;;4.90;99.90;;;;;;5056759;28;20467;-75
2021/03/24 00:38:50;;;;;;;32.90;19.80;;;5.00;99.90;;;;;;5022857;28;20431;-72
2021/03/24 00:41:18;;;;;;;25.90;16.47;;;5.00;99.90;;;;;;5038929;28;20443;-73
2021/03/24 00:43:46;;;;;;;29.77;18.50;;;5.10;99.90;;;;;;5038929;28;20891;-76
2021/03/24 00:46:13;;;;;;;26.13;16.17;;;5.20;99.90;;;;;;5028476;28;20484;-73
2021/03/24 00:48:43;;;;;;;30.13;18.20;;;5.30;99.90;;;;;;5037487;28;20432;-73
2021/03/24 00:51:12;;;;;;;31.17;17.00;;;5.30;99.90;;;;;;5019480;28;20447;-73
2021/03/24 00:53:39;;;;;;;29.93;16.33;;;5.30;99.90;;;;;;5019751;28;20437;-76
2021/03/24 00:56:07;;;;;;;27.87;16.73;;;5.40;99.90;;;;;;5037553;28;20435;-72
2021/03/24 00:58:35;;;;;;;26.97;17.13;;;5.40;99.90;;;;;;5036201;28;20450;-77
2021/03/24 01:01:02;;;;;;;30.67;16.40;;;5.40;99.90;;;;;;5017697;28;20476;-73
2021/03/24 01:03:30;;;;;;;29.17;15.97;;;5.40;99.90;;;;;;5036071;28;20472;-73
2021/03/24 01:05:58;;;;;;;29.30;15.47;;;5.20;99.90;;;;;;5018915;28;20429;-73
2021/03/24 01:08:26;;;;;;;27.50;15.87;;;5.20;99.90;;;;;;5018217;28;20517;-73
2021/03/24 01:11:00;;;;;;;29.87;15.47;;;5.20;99.90;;;;;;5001614;28;20440;-73
2021/03/24 01:13:32;;;;;;;22.63;13.00;;;5.30;99.90;;;;;;5018954;28;20441;-73
2021/03/24 01:16:01;;;;;;;25.17;14.67;;;5.50;99.90;;;;;;5025036;28;20563;-73
2021/03/24 01:18:29;;;;;;;26.80;16.50;;;5.40;99.90;;;;;;5056108;28;20430;-73
2021/03/24 01:20:59;;;;;;;25.67;14.60;;;5.30;99.90;;;;;;5039033;28;20462;-73
2021/03/24 01:23:27;;;;;;;21.70;12.83;;;5.30;99.90;;;;;;5055132;28;20435;-72
2021/03/24 01:25:56;;;;;;;23.73;12.77;;;5.40;99.90;;;;;;5056860;28;20425;-72
2021/03/24 01:28:25;;;;;;;23.63;12.00;;;5.60;99.90;;;;;;5039348;28;20444;-72
2021/03/24 01:30:54;;;;;;;27.17;14.50;;;5.60;99.90;;;;;;5055671;28;20476;-73
2021/03/24 01:33:23;;;;;;;25.13;14.17;;;5.60;99.90;;;;;;5062875;28;20404;-74
2021/03/24 01:35:54;;;;;;;22.23;12.60;;;5.70;99.90;;;;;;5073119;28;20433;-73
2021/03/24 01:38:25;;;;;;;25.50;13.07;;;5.70;99.90;;;;;;5056453;28;20796;-73
2021/03/24 01:40:55;;;;;;;21.10;12.13;;;5.80;99.90;;;;;;5072503;28;20410;-72
2021/03/24 01:43:26;;;;;;;17.90;11.40;;;5.80;99.90;;;;;;5072751;28;20439;-73
2021/03/24 01:46:24;;;;;;;19.00;11.40;;;5.90;99.90;;;;;;5065305;28;20479;-74
2021/03/24 01:48:56;;;;;;;18.20;11.80;;;5.90;99.90;;;;;;5052672;28;20484;-72
2021/03/24 01:51:27;;;;;;;18.47;12.40;;;5.90;99.90;;;;;;5050590;28;20433;-73
2021/03/24 01:53:55;;;;;;;17.57;10.87;;;5.90;99.90;;;;;;5018985;28;20800;-78
2021/03/24 01:56:25;;;;;;;17.70;11.40;;;6.00;99.90;;;;;;5036957;28;20433;-71
2021/03/24 01:58:54;;;;;;;21.53;10.67;;;6.00;99.90;;;;;;5002327;28;20443;-72
2021/03/24 02:01:23;;;;;;;20.37;12.33;;;5.90;99.90;;;;;;5046418;28;20521;-72
2021/03/24 02:04:16;;;;;;;21.20;12.10;;;5.70;99.90;;;;;;5055087;28;20460;-77
2021/03/24 02:06:51;;;;;;;20.60;12.40;;;5.70;99.90;;;;;;5055356;28;20436;-75
2021/03/24 02:09:37;;;;;;;24.73;12.57;;;5.70;99.90;;;;;;5056012;28;20437;-73
2021/03/24 02:12:11;;;;;;;22.43;13.87;;;5.60;99.90;;;;;;5037235;28;20419;-72
2021/03/24 02:14:46;;;;;;;21.83;11.17;;;5.60;99.90;;;;;;5055236;28;20808;-75
2021/03/24 02:23:19;;;;;;;21.13;13.03;;;5.70;99.90;;;;;;5054246;28;20468;-73
2021/03/24 02:25:54;;;;;;;21.80;12.23;;;5.70;99.90;;;;;;5054851;28;20433;-72
2021/03/24 02:28:23;;;;;;;23.43;13.23;;;5.70;99.90;;;;;;5054642;28;20493;-73
2021/03/24 02:30:52;;;;;;;19.67;13.00;;;5.80;99.90;;;;;;5046901;28;20492;-72
2021/03/24 02:33:22;;;;;;;20.83;12.40;;;5.80;99.90;;;;;;5035183;28;20443;-74
2021/03/24 02:35:56;;;;;;;21.03;12.40;;;5.70;99.90;;;;;;5034180;28;20438;-78
2021/03/24 02:38:24;;;;;;;18.30;11.30;;;5.80;99.90;;;;;;5016515;28;20418;-73
2021/03/24 02:40:57;;;;;;;24.03;13.80;;;5.80;99.90;;;;;;5034801;28;20439;-72
2021/03/24 02:43:31;;;;;;;23.70;13.40;;;5.90;99.90;;;;;;5035138;28;20440;-73
2021/03/24 02:46:00;;;;;;;22.07;12.53;;;5.80;99.90;;;;;;5023445;28;20476;-73
2021/03/24 02:48:32;;;;;;;25.03;17.50;;;5.80;99.90;;;;;;5054126;28;21027;-73
2021/03/24 02:51:05;;;;;;;22.93;12.47;;;5.80;99.90;;;;;;5054925;28;20416;-72
2021/03/24 02:53:38;;;;;;;22.90;13.80;;;5.80;99.90;;;;;;5054909;28;20424;-76
2021/03/24 02:56:08;;;;;;;25.13;14.13;;;5.80;99.90;;;;;;5055512;28;20413;-73
2021/03/24 02:58:38;;;;;;;17.00;11.73;;;5.80;99.90;;;;;;5055171;28;20473;-75
2021/03/24 03:01:11;;;;;;;22.53;12.90;;;5.80;99.90;;;;;;5044907;28;20486;-73
2021/03/24 03:03:47;;;;;;;27.30;14.97;;;5.70;99.90;;;;;;5017964;28;20443;-72
2021/03/24 03:06:19;;;;;;;25.60;15.00;;;5.70;99.90;;;;;;5021298;28;20432;-73
2021/03/24 03:08:49;;;;;;;26.73;13.20;;;5.60;99.90;;;;;;5039447;28;20415;-76
2021/03/24 03:11:23;;;;;;;24.17;14.10;;;5.70;99.90;;;;;;5043713;28;20465;-76
2021/03/24 03:13:56;;;;;;;24.07;13.77;;;5.60;99.90;;;;;;5042853;28;20411;-75
2021/03/24 03:16:54;;;;;;;19.73;11.80;;;5.60;99.90;;;;;;5052554;28;20459;-73
2021/03/24 03:19:26;;;;;;;24.10;13.43;;;5.60;99.90;;;;;;5057911;28;20428;-74
2021/03/24 03:22:00;;;;;;;26.80;14.70;;;5.50;99.90;;;;;;5039877;28;20867;-75
2021/03/24 03:24:34;;;;;;;29.40;14.63;;;5.50;99.90;;;;;;5057639;28;20608;-73
2021/03/24 03:27:05;;;;;;;21.07;13.47;;;5.60;99.90;;;;;;5057752;28;20412;-73
2021/03/24 03:29:36;;;;;;;18.30;11.40;;;5.80;99.90;;;;;;5058525;28;20408;-72
2021/03/24 03:32:06;;;;;;;21.10;12.57;;;5.90;99.90;;;;;;5055604;28;20832;-73
2021/03/24 03:34:37;;;;;;;25.60;13.90;;;5.80;99.90;;;;;;5058808;28;20434;-75
2021/03/24 03:37:09;;;;;;;25.90;13.70;;;5.60;99.90;;;;;;5058279;28;20515;-73
2021/03/24 03:39:37;;;;;;;24.87;12.93;;;5.50;99.90;;;;;;5058252;28;20433;-76
2021/03/24 03:42:07;;;;;;;25.00;14.63;;;5.40;99.90;;;;;;5058157;28;20775;-73
2021/03/24 03:44:36;;;;;;;22.33;13.80;;;5.40;99.90;;;;;;5040263;28;20442;-73
2021/03/24 03:47:10;;;;;;;26.43;14.77;;;5.30;99.90;;;;;;5041372;28;20908;-73
2021/03/24 03:49:40;;;;;;;24.53;13.13;;;5.30;99.90;;;;;;5025268;28;20510;-74
2021/03/24 03:52:26;;;;;;;27.80;15.70;;;5.30;99.90;;;;;;5044678;28;20414;-74
2021/03/24 03:55:05;;;;;;;25.40;14.33;;;5.30;99.90;;;;;;5027090;28;20479;-74
2021/03/24 03:57:36;;;;;;;22.63;14.20;;;5.30;99.90;;;;;;5046607;28;20526;-76
2021/03/24 04:00:19;;;;;;;24.97;13.30;;;5.30;99.90;;;;;;5043111;28;20843;-73
2021/03/24 04:02:55;;;;;;;21.70;14.17;;;5.30;99.90;;;;;;5043561;28;20463;-72
2021/03/24 04:05:27;;;;;;;21.97;13.40;;;5.40;99.90;;;;;;5062167;28;21011;-73
2021/03/24 04:07:59;;;;;;;25.50;14.97;;;5.40;99.90;;;;;;5058749;28;20476;-72
2021/03/24 04:10:31;;;;;;;25.70;14.67;;;5.30;99.90;;;;;;5057802;28;20413;-72
2021/03/24 04:13:01;;;;;;;22.50;13.03;;;5.30;99.90;;;;;;5057610;28;20993;-72
2021/03/24 04:15:31;;;;;;;24.30;13.40;;;5.30;99.90;;;;;;5038530;28;20455;-76
2021/03/24 04:18:05;;;;;;;30.47;14.30;;;5.20;99.90;;;;;;5040566;28;20431;-72
2021/03/24 04:20:36;;;;;;;25.10;13.67;;;5.20;99.90;;;;;;5058307;28;20485;-74
2021/03/24 04:23:09;;;;;;;24.00;14.40;;;5.10;99.90;;;;;;5040337;28;20489;-73
2021/03/24 04:25:42;;;;;;;21.23;12.80;;;5.10;99.90;;;;;;5041572;28;20439;-73
2021/03/24 04:28:15;;;;;;;27.70;14.70;;;5.00;99.90;;;;;;5059222;28;20428;-72
2021/03/24 04:30:50;;;;;;;28.57;16.27;;;5.00;99.90;;;;;;5033580;28;20479;-73
2021/03/24 04:33:19;;;;;;;24.23;14.30;;;5.00;99.90;;;;;;5037301;28;20424;-76
2021/03/24 04:35:48;;;;;;;24.40;15.07;;;5.00;99.90;;;;;;5036905;28;20966;-74
2021/03/24 04:38:26;;;;;;;24.73;14.43;;;5.00;99.90;;;;;;5035913;28;20928;-73
2021/03/24 04:41:00;;;;;;;24.23;14.83;;;5.20;99.90;;;;;;5019597;28;20443;-73
2021/03/24 04:43:32;;;;;;;29.47;15.03;;;5.10;99.90;;;;;;5019965;28;20580;-72
2021/03/24 04:46:10;;;;;;;26.93;15.33;;;5.10;99.90;;;;;;5036172;28;20471;-74
2021/03/24 04:48:42;;;;;;;30.30;15.97;;;5.00;99.90;;;;;;5050674;28;20448;-74
2021/03/24 04:51:14;;;;;;;28.93;15.30;;;4.90;99.90;;;;;;5038140;28;20432;-76
2021/03/24 04:53:44;;;;;;;28.80;15.90;;;4.90;99.90;;;;;;5055364;28;20442;-72
2021/03/24 04:56:15;;;;;;;27.30;13.03;;;4.90;99.90;;;;;;5037210;28;20427;-72
2021/03/24 04:58:46;;;;;;;25.03;14.27;;;4.80;99.90;;;;;;5034400;28;20468;-75
2021/03/24 05:01:19;;;;;;;28.43;15.77;;;4.80;99.90;;;;;;5034137;28;20481;-73
2021/03/24 05:03:57;;;;;;;27.00;14.80;;;4.70;99.90;;;;;;5035549;28;20455;-73
2021/03/24 05:06:31;;;;;;;24.53;14.63;;;4.70;99.90;;;;;;5028847;28;20464;-73
2021/03/24 05:09:01;;;;;;;25.73;14.50;;;4.60;99.90;;;;;;5002052;28;20435;-74
2021/03/24 05:11:32;;;;;;;27.27;15.53;;;4.60;99.90;;;;;;5015625;28;20440;-73
2021/03/24 05:14:27;;;;;;;24.77;14.60;;;4.70;99.90;;;;;;5017096;28;20455;-73
2021/03/24 05:23:07;;;;;;;23.00;14.47;;;4.60;99.90;;;;;;5036024;28;20423;-73
2021/03/24 05:25:53;;;;;;;30.40;18.17;;;4.60;99.90;;;;;;5035986;28;20424;-74
2021/03/24 05:28:26;;;;;;;30.30;15.70;;;4.60;99.90;;;;;;5035852;28;20522;-73
2021/03/24 05:31:00;;;;;;;25.03;14.20;;;4.60;99.90;;;;;;5035857;28;20475;-72
2021/03/24 05:33:36;;;;;;;27.27;16.07;;;4.60;99.90;;;;;;5038056;28;20420;-72
2021/03/24 05:36:12;;;;;;;21.73;13.80;;;4.60;99.90;;;;;;5035610;28;20938;-73
2021/03/24 05:38:52;;;;;;;21.97;13.93;;;4.70;99.90;;;;;;5037552;28;20485;-73
2021/03/24 05:41:29;;;;;;;24.33;12.97;;;4.60;99.90;;;;;;5034129;28;20950;-72
2021/03/24 05:44:35;;;;;;;27.57;15.50;;;4.70;99.90;;;;;;5035143;28;20475;-73
2021/03/24 05:47:28;;;;;;;28.33;15.10;;;4.70;99.90;;;;;;4978955;28;20478;-72
2021/03/24 05:50:19;;;;;;;35.40;16.37;;;4.80;99.90;;;;;;5016835;28;20440;-74
2021/03/24 05:53:01;;;;;;;25.70;12.63;;;4.90;99.90;;;;;;5016970;28;20467;-72
2021/03/24 05:55:43;;;;;;;32.60;17.73;;;4.90;99.90;;;;;;5018739;28;20433;-74
2021/03/24 05:58:32;;;;;;;25.67;14.00;;;5.00;99.90;;;;;;5028145;28;20871;-73
2021/03/24 06:01:04;;;;;;;23.63;13.23;;;5.00;99.90;;;;;;5039246;28;20993;-73
2021/03/24 06:03:58;;;;;;;28.30;15.43;;;5.10;99.90;;;;;;5036089;28;20472;-72
2021/03/24 06:06:58;;;;;;;22.63;14.13;;;5.10;99.90;;;;;;5019111;28;20523;-72
2021/03/24 06:09:46;;;;;;;38.90;17.50;;;5.20;99.90;;;;;;5018367;28;20455;-72
2021/03/24 06:12:47;;;;;;;35.97;18.17;;;5.50;99.90;;;;;;5018331;28;20438;-74
2021/03/24 06:15:38;;;;;;;29.60;16.30;;;5.60;99.90;;;;;;5036757;28;20410;-72
2021/03/24 06:18:31;;;;;;;25.50;14.70;;;5.70;99.90;;;;;;5054839;28;20481;-76
2021/03/24 06:21:20;;;;;;;31.93;17.73;;;6.20;99.90;;;;;;5054548;28;20445;-72
2021/03/24 06:24:08;;;;;;;28.03;15.37;;;6.20;99.90;;;;;;5054801;28;20530;-74
2021/03/24 06:27:09;;;;;;;24.80;14.20;;;6.40;99.90;;;;;;5036510;28;20442;-73
2021/03/24 06:29:50;;;;;;;25.83;16.43;;;6.50;99.90;;;;;;5020868;28;20485;-75
2021/03/24 06:32:44;;;;;;;30.83;17.40;;;6.20;99.90;;;;;;5036841;28;20491;-74
2021/03/24 06:35:37;;;;;;;30.63;16.43;;;6.20;99.90;;;;;;5026268;28;20451;-73
2021/03/24 06:38:33;;;;;;;35.00;19.33;;;6.80;99.90;;;;;;5054994;28;20465;-73
2021/03/24 06:41:29;;;;;;;25.97;15.10;;;7.60;99.90;;;;;;5059743;28;20456;-74
2021/03/24 06:44:19;;;;;;;32.33;15.97;;;7.90;99.90;;;;;;4987196;28;20476;-73
2021/03/24 06:46:54;;;;;;;42.90;16.90;;;9.60;99.90;;;;;;5043520;28;20960;-75
2021/03/24 06:49:37;;;;;;;31.30;15.90;;;10.40;96.70;;;;;;5038667;28;20524;-76
2021/03/24 06:52:42;;;;;;;28.63;16.83;;;11.90;93.20;;;;;;5038911;28;20435;-73
2021/03/24 06:55:46;;;;;;;26.40;14.67;;;12.80;90.10;;;;;;5004054;28;20424;-73
2021/03/24 06:58:43;;;;;;;23.13;13.43;;;12.10;90.50;;;;;;5001077;28;20986;-74
2021/03/24 07:01:44;;;;;;;28.27;15.47;;;12.20;90.10;;;;;;5024935;28;20863;-74
2021/03/24 07:04:31;;;;;;;24.00;15.13;;;14.50;87.80;;;;;;5030060;28;20478;-73
2021/03/24 07:07:38;;;;;;;22.73;14.13;;;14.80;77.40;;;;;;5037151;28;20429;-73
2021/03/24 07:10:18;;;;;;;20.63;14.33;;;14.10;81.50;;;;;;5037838;28;20439;-73
2021/03/24 07:13:20;;;;;;;25.30;15.17;;;13.80;80.90;;;;;;5037782;28;20460;-73
2021/03/24 07:15:55;;;;;;;25.40;16.87;;;13.40;81.40;;;;;;5035101;28;20475;-73
2021/03/24 07:18:52;;;;;;;21.60;14.63;;;13.20;81.30;;;;;;5037109;28;20837;-74
2021/03/24 07:22:02;;;;;;;24.90;14.87;;;13.00;79.70;;;;;;5036035;28;20499;-73
2021/03/24 07:25:01;;;;;;;24.07;14.80;;;12.90;80.50;;;;;;4995238;28;20544;-73
2021/03/24 07:27:46;;;;;;;27.50;15.43;;;14.50;78.70;;;;;;5036013;28;20429;-75
2021/03/24 07:30:24;;;;;;;24.27;14.03;;;16.90;66.70;;;;;;5033892;28;20458;-72
2021/03/24 07:36:29;;;;;;;20.57;13.77;;;17.80;59.30;;;;;;5015662;28;20471;-72
2021/03/24 07:39:29;;;;;;;24.70;15.00;;;18.90;57.90;;;;;;4995285;28;20444;-73
2021/03/24 07:42:23;;;;;;;22.50;15.17;;;17.60;55.70;;;;;;5019431;28;20448;-73
2021/03/24 07:45:25;;;;;;;24.43;15.23;;;15.90;59.40;;;;;;5002063;28;20483;-73
2021/03/24 07:48:09;;;;;;;22.70;15.20;;;16.60;59.30;;;;;;5020856;28;20506;-71
2021/03/24 07:50:48;;;;;;;24.50;16.50;;;15.60;59.30;;;;;;5019266;28;20480;-71
2021/03/24 07:53:46;;;;;;;21.67;14.70;;;15.70;60.00;;;;;;5017640;28;20945;-77
2021/03/24 07:56:28;;;;;;;22.50;15.70;;;16.00;61.10;;;;;;5018538;28;20444;-73
2021/03/24 07:59:22;;;;;;;23.60;15.27;;;15.30;56.60;;;;;;5018302;28;20549;-74
2021/03/24 08:02:28;;;;;;;23.17;13.80;;;16.00;58.60;;;;;;5018818;28;20971;-72
2021/03/24 08:05:49;;;;;;;21.67;14.40;;;15.90;57.70;;;;;;5020662;28;20464;-72
2021/03/24 08:08:29;;;;;;;23.03;16.80;;;14.80;58.60;;;;;;5004669;28;20517;-75
2021/03/24 08:11:09;;;;;;;21.90;13.70;;;16.60;57.90;;;;;;5020639;28;20460;-75
2021/03/24 08:14:12;;;;;;;19.00;13.67;;;19.60;53.60;;;;;;5020563;28;20440;-77
2021/03/24 08:16:58;;;;;;;21.83;15.10;;;20.20;49.60;;;;;;5027147;28;21094;-75
2021/03/24 08:19:34;;;;;;;;;;;18.70;51.00;;;;;;5005957;28;20301;-74
2021/03/24 08:22:18;;;;;;;17.33;12.30;;;17.10;52.50;;;;;;5029014;28;20713;-75
2021/03/24 08:24:59;;;;;;;21.77;16.35;;;15.80;56.10;;;;;;5021198;28;20424;-73
2021/03/24 08:27:39;;;;;;;23.63;17.50;;;16.50;52.80;;;;;;5018392;28;20447;-73
2021/03/24 08:30:15;;;;;;;21.73;14.47;;;15.50;56.10;;;;;;5018137;28;20195;-72
2021/03/24 08:33:19;;;;;;;19.10;13.53;;;14.20;57.20;;;;;;5018406;28;20530;-73
2021/03/24 08:39:38;;;;;;;22.73;13.97;;;18.00;51.60;;;;;;5019762;28;20645;-71
2021/03/24 08:42:48;;;;;;;24.13;14.00;;;19.30;49.00;;;;;;5019388;28;20532;-72
2021/03/24 08:45:23;;;;;;;20.07;13.97;;;19.10;49.20;;;;;;5018599;28;20456;-71
2021/03/24 08:47:58;;;;;;;19.07;14.93;;;20.00;47.70;;;;;;5021352;28;20451;-71
2021/03/24 08:50:31;;;;;;;18.40;12.73;;;19.60;46.40;;;;;;5039556;28;20439;-73
2021/03/24 08:53:07;;;;;;;17.07;12.63;;;19.40;46.80;;;;;;5037429;28;20447;-72
2021/03/24 08:55:55;;;;;;;18.60;14.07;;;21.50;45.00;;;;;;5035662;28;20816;-72
2021/03/24 08:58:45;;;;;;;20.77;14.60;;;17.10;48.10;;;;;;5019886;28;20472;-72
2021/03/24 09:01:33;;;;;;;20.17;14.47;;;16.00;53.70;;;;;;5021394;28;20826;-71
2021/03/24 09:04:26;;;;;;;21.33;15.10;;;16.50;52.80;;;;;;5038024;28;20558;-71
2021/03/24 09:07:02;;;;;;;16.50;11.57;;;17.70;51.60;;;;;;5021623;28;20955;-72
2021/03/24 09:09:43;;;;;;;19.17;14.40;;;19.70;47.90;;;;;;5019532;28;20422;-72
2021/03/24 09:12:23;;;;;;;16.87;13.10;;;20.60;45.60;;;;;;5037217;28;20950;-73
2021/03/24 09:14:58;;;;;;;18.30;13.07;;;20.90;45.00;;;;;;5019313;28;20530;-72
2021/03/24 09:18:01;;;;;;;21.67;14.13;;;22.10;42.30;;;;;;4994938;28;20987;-72
2021/03/24 09:21:06;;;;;;;18.30;12.57;;;22.30;41.90;;;;;;5004500;28;20826;-72
2021/03/24 09:24:19;;;;;;;19.30;14.20;;;22.80;40.80;;;;;;5017430;28;20417;-72
2021/03/24 09:27:28;;;;;;;17.92;14.60;;;21.90;41.50;;;;;;5015756;28;20420;-71
2021/03/24 09:30:48;;;;;;;19.50;13.50;;;20.50;42.70;;;;;;5015501;28;20653;-75
2021/03/24 09:33:45;;;;;;;16.70;12.27;;;18.10;45.00;;;;;;5018075;28;20459;-75
2021/03/24 09:36:49;;;;;;;21.23;12.03;;;18.50;47.40;;;;;;5016119;28;20432;-72
2021/03/24 09:39:29;;;;;;;18.83;13.13;;;22.30;42.30;;;;;;5015746;28;20528;-76
2021/03/24 09:42:01;;;;;;;19.27;13.90;;;21.40;38.30;;;;;;5000000;28;20432;-73
2021/03/24 09:44:44;;;;;;;20.63;13.70;;;19.20;43.20;;;;;;4999192;28;20472;-75
2021/03/24 09:47:25;;;;;;;17.87;12.90;;;18.80;43.70;;;;;;5017747;28;20459;-73
2021/03/24 09:50:00;;;;;;;15.67;12.60;;;20.30;42.90;;;;;;5036798;28;20471;-73
2021/03/24 09:52:34;;;;;;;19.57;12.60;;;21.40;43.00;;;;;;5035646;28;20519;-76
2021/03/24 09:55:23;;;;;;;21.37;13.60;;;22.30;40.30;;;;;;5036784;28;20910;-72
2021/03/24 09:58:34;;;;;;;16.50;11.93;;;20.50;41.40;;;;;;5036988;28;20522;-72
2021/03/24 10:01:15;;;;;;;18.10;13.87;;;20.80;40.00;;;;;;5038627;28;20480;-70
2021/03/24 10:03:49;;;;;;;21.67;14.80;;;21.50;42.30;;;;;;5039131;28;20450;-76
2021/03/24 10:06:29;;;;;;;17.30;14.13;;;18.20;44.20;;;;;;5056868;28;20437;-73
2021/03/24 10:09:05;;;;;;;19.30;13.60;;;17.70;45.60;;;;;;5023537;28;20500;-70
2021/03/24 10:11:47;;;;;;;16.90;13.03;;;16.50;48.60;;;;;;5053886;28;20479;-73
2021/03/24 10:14:31;;;;;;;18.60;13.97;;;18.30;47.90;;;;;;5056840;28;20952;-76
2021/03/24 10:17:01;;;;;;;17.30;13.65;;;19.00;42.90;;;;;;5022494;28;20441;-73
2021/03/24 10:19:34;;;;;;;18.87;13.53;;;19.80;44.90;;;;;;5019057;28;20522;-72
2021/03/24 10:22:13;;;;;;;15.43;12.67;;;20.10;44.60;;;;;;5019390;28;21025;-74
2021/03/24 10:24:44;;;;;;;16.83;12.37;;;18.40;45.70;;;;;;5019529;28;20462;-75
2021/03/24 10:27:18;;;;;;;18.63;12.33;;;18.60;46.80;;;;;;5037384;28;20437;-71
2021/03/24 10:30:01;;;;;;;17.10;12.27;;;19.40;45.60;;;;;;5003076;28;20435;-71
2021/03/24 10:32:40;;;;;;;17.00;12.70;;;17.10;48.90;;;;;;5002603;28;20483;-71
2021/03/24 10:35:41;;;;;;;16.37;12.77;;;18.20;47.70;;;;;;5037364;28;20470;-71
2021/03/24 10:38:29;;;;;;;20.27;17.40;;;19.30;46.50;;;;;;5018395;28;20430;-73
2021/03/24 10:41:10;;;;;;;18.70;12.87;;;18.90;45.90;;;;;;5035653;28;20447;-71
2021/03/24 10:43:43;;;;;;;19.60;14.20;;;19.50;45.70;;;;;;5018126;28;20439;-72
2021/03/24 10:46:18;;;;;;;17.27;12.20;;;18.80;43.60;;;;;;5035077;28;20499;-71
2021/03/24 10:48:52;;;;;;;15.73;12.47;;;17.40;46.20;;;;;;5018469;28;20441;-73
2021/03/24 10:51:32;;;;;;;16.97;12.83;;;17.60;48.90;;;;;;5037511;28;20430;-72
2021/03/24 10:54:15;;;;;;;19.60;13.10;;;17.80;48.90;;;;;;5018756;28;20791;-74
2021/03/24 10:56:59;;;;;;;20.07;13.20;;;19.00;47.00;;;;;;5036831;28;20423;-72
2021/03/24 10:59:35;;;;;;;18.77;12.90;;;17.60;48.70;;;;;;5036008;28;20477;-74
2021/03/24 11:02:24;;;;;;;17.60;13.40;;;18.60;48.90;;;;;;5016828;28;21055;-71
2021/03/24 11:04:56;;;;;;;20.07;13.57;;;17.80;47.90;;;;;;5022331;28;20586;-70
2021/03/24 11:07:33;;;;;;;21.97;13.30;;;17.00;47.70;;;;;;5057242;28;20439;-75
2021/03/24 11:10:25;;;;;;;17.60;12.17;;;18.10;48.40;;;;;;5056519;28;20434;-72
2021/03/24 11:12:57;;;;;;;17.80;12.47;;;16.20;50.80;;;;;;5038491;28;20489;-73
2021/03/24 11:15:40;;;;;;;18.83;13.20;;;16.90;49.50;;;;;;5035773;28;20522;-72
2021/03/24 11:18:11;;;;;;;15.40;12.07;;;17.50;49.70;;;;;;5021183;28;20457;-73
2021/03/24 11:20:44;;;;;;;15.43;11.63;;;17.50;50.40;;;;;;5031677;28;20494;-71
2021/03/24 11:23:22;;;;;;;16.27;12.67;;;18.90;47.70;;;;;;5031752;28;20407;-74
2021/03/24 11:25:56;;;;;;;19.90;13.43;;;19.00;45.50;;;;;;5032237;28;20488;-73
2021/03/24 11:28:29;;;;;;;18.00;12.53;;;19.40;45.00;;;;;;5054020;28;20510;-73
2021/03/24 11:31:05;;;;;;;15.93;11.93;;;19.00;45.20;;;;;;5054635;28;20486;-71
2021/03/24 11:33:39;;;;;;;23.07;13.80;;;18.10;47.80;;;;;;5035017;28;20448;-72
2021/03/24 11:36:20;;;;;;;18.10;11.80;;;17.60;47.40;;;;;;5021178;28;20455;-70
2021/03/24 11:38:59;;;;;;;19.33;12.03;;;17.20;48.30;;;;;;5043213;28;20441;-70
2021/03/24 11:41:31;;;;;;;15.20;12.13;;;17.10;50.20;;;;;;5022729;28;20443;-75
2021/03/24 11:44:04;;;;;;;17.17;12.60;;;16.40;48.80;;;;;;5039298;28;20450;-69
2021/03/24 11:46:38;;;;;;;16.80;11.50;;;17.60;47.10;;;;;;5051244;28;20511;-75
2021/03/24 11:49:26;;;;;;;17.87;13.03;;;18.50;47.60;;;;;;5059255;28;20541;-71
2021/03/24 11:52:29;;;;;;;17.63;12.47;;;20.30;44.80;;;;;;5058867;28;20438;-76
2021/03/24 11:55:27;;;;;;;18.90;11.60;;;19.80;42.40;;;;;;5027898;28;20438;-73
2021/03/24 11:58:04;;;;;;;18.57;14.03;;;19.40;46.70;;;;;;5041384;28;20461;-71
2021/03/24 12:00:59;;;;;;;16.37;12.13;;;18.40;44.70;;;;;;5039952;28;20565;-69
2021/03/24 12:03:55;;;;;;;16.30;12.90;;;18.10;47.00;;;;;;5041067;28;20439;-75
2021/03/24 12:06:46;;;;;;;14.83;11.17;;;18.20;48.20;;;;;;5058617;28;20517;-70
2021/03/24 12:09:22;;;;;;;19.40;12.97;;;18.60;47.80;;;;;;5059128;28;20426;-73
2021/03/24 12:11:51;;;;;;;19.50;14.70;;;18.90;46.70;;;;;;5041990;28;21008;-73
2021/03/24 12:14:22;;;;;;;15.80;11.83;;;18.20;44.70;;;;;;5058919;28;20476;-72
2021/03/24 12:16:52;;;;;;;17.90;13.33;;;17.70;51.00;;;;;;5043639;28;20470;-71
2021/03/24 12:19:32;;;;;;;18.43;13.60;;;20.10;46.40;;;;;;5005013;28;20804;-73
2021/03/24 12:22:05;;;;;;;18.73;13.20;;;19.80;45.70;;;;;;5020515;28;20431;-70
2021/03/24 12:24:36;;;;;;;18.63;13.57;;;21.30;43.90;;;;;;5037797;28;20537;-70
2021/03/24 12:27:10;;;;;;;19.70;13.70;;;22.70;42.80;;;;;;5039596;28;20546;-68
2021/03/24 12:29:41;;;;;;;18.83;12.87;;;21.20;43.60;;;;;;5020175;28;20443;-70
2021/03/24 12:32:21;;;;;;;15.83;12.50;;;20.70;45.60;;;;;;5017103;28;20529;-70
2021/03/24 12:35:19;;;;;;;15.83;13.10;;;23.10;42.70;;;;;;5036782;28;20427;-69
2021/03/24 12:37:55;;;;;;;13.93;11.60;;;20.10;41.80;;;;;;4980101;28;20456;-74
2021/03/24 12:40:25;;;;;;;16.30;12.30;;;20.20;45.40;;;;;;5017386;28;20440;-69
2021/03/24 12:43:04;;;;;;;15.60;12.53;;;21.00;44.00;;;;;;5017504;28;20451;-70
2021/03/24 12:45:37;;;;;;;16.10;12.60;;;21.60;43.30;;;;;;5020791;28;20479;-70
2021/03/24 12:48:11;;;;;;;15.23;11.20;;;19.20;44.00;;;;;;5037865;28;20796;-71
2021/03/24 12:50:57;;;;;;;16.33;12.67;;;17.00;49.40;;;;;;5039895;28;20430;-72
2021/03/24 12:53:41;;;;;;;18.73;12.50;;;17.40;50.50;;;;;;5037990;28;20517;-71
2021/03/24 12:56:43;;;;;;;17.17;13.10;;;17.40;51.10;;;;;;5020640;28;20451;-71
2021/03/24 12:59:35;;;;;;;16.60;11.97;;;17.70;50.60;;;;;;5020403;28;20463;-70
2021/03/24 13:02:28;;;;;;;18.77;12.50;;;17.00;49.60;;;;;;5037254;28;20475;-70
2021/03/24 13:05:12;;;;;;;19.00;13.00;;;17.40;50.80;;;;;;5020229;28;20466;-70
2021/03/24 13:07:46;;;;;;;17.93;11.90;;;16.40;52.90;;;;;;5019238;28;20449;-72
2021/03/24 13:10:27;;;;;;;15.20;10.53;;;16.20;54.00;;;;;;5021044;28;20824;-71
2021/03/24 13:13:09;;;;;;;17.43;12.70;;;16.80;52.00;;;;;;5037620;28;20502;-72
2021/03/24 13:15:43;;;;;;;16.83;12.70;;;16.50;53.00;;;;;;5019967;28;20471;-72
2021/03/24 13:18:32;;;;;;;16.17;12.17;;;16.50;53.50;;;;;;5020893;28;20501;-71
2021/03/24 13:21:09;;;;;;;20.30;12.27;;;15.00;54.20;;;;;;5021576;28;20946;-72
2021/03/24 13:23:45;;;;;;;18.20;12.87;;;14.50;56.30;;;;;;5037386;28;20442;-74
2021/03/24 13:26:20;;;;;;;16.90;11.80;;;14.80;57.20;;;;;;5002085;28;20558;-73
2021/03/24 13:29:15;;;;;;;19.83;11.77;;;14.70;56.80;;;;;;5036122;28;20427;-72
2021/03/24 13:32:02;;;;;;;18.80;12.13;;;15.00;56.40;;;;;;5018526;28;20494;-72
2021/03/24 13:34:44;;;;;;;19.50;11.63;;;15.70;55.60;;;;;;5019559;28;21024;-72
2021/03/24 13:37:20;;;;;;;18.63;12.00;;;16.60;54.50;;;;;;5020236;28;20442;-76
2021/03/24 13:39:53;;;;;;;18.57;12.10;;;16.80;53.30;;;;;;5020059;28;20419;-76
2021/03/24 13:42:30;;;;;;;17.53;12.73;;;17.90;52.20;;;;;;5018736;28;20416;-73
2021/03/24 13:45:06;;;;;;;17.27;11.40;;;19.70;48.90;;;;;;5002967;28;20474;-72
2021/03/24 13:47:39;;;;;;;14.83;10.53;;;16.90;50.70;;;;;;5015616;28;20479;-74
2021/03/24 13:50:19;;;;;;;17.70;12.57;;;16.90;53.50;;;;;;4999267;28;20498;-74
2021/03/24 13:52:51;;;;;;;11.40;9.37;;;17.20;52.40;;;;;;4999547;28;20807;-72
2021/03/24 13:55:45;;;;;;;15.20;11.33;;;17.70;51.90;;;;;;4999976;28;20440;-74